Time;durP1;ratioP1;P1;durP2;ratioP2;P2;SDS_P1;SDS_P2;PMS_P1;PMS_P2;Temp;Humidity;BMP_temperature;BMP_pressure;BME280_temperature;BME280_humidity;BME280_pressure;Samples;Min_cycle;Max_cycle;Signal;HPM_P1;HPM_P2
2022/01/01 00:01:27;;;;;;;227.50;132.00;;;;;;;7.45;69.71;95424.81;4951337;29;20040;-79
2022/01/01 00:03:58;;;;;;;226.43;132.07;;;;;;;7.42;68.76;95425.19;4917732;29;20078;-79
2022/01/01 00:06:23;;;;;;;198.43;121.43;;;;;;;7.27;68.28;95419.41;4917789;29;20120;-79
2022/01/01 00:08:51;;;;;;;278.95;159.43;;;;;;;7.26;68.80;95431.53;4951228;29;20031;-79
2022/01/01 00:11:16;;;;;;;298.05;172.38;;;;;;;7.21;67.79;95424.38;4931806;29;20903;-79
2022/01/01 00:13:45;;;;;;;266.40;155.27;;;;;;;7.16;68.75;95421.59;4931964;29;20038;-79
2022/01/01 00:16:10;;;;;;;446.08;283.92;;;;;;;7.15;67.16;95419.97;4900516;29;20039;-79
2022/01/01 00:18:36;;;;;;;491.35;325.38;;;;;;;7.10;67.40;95411.19;4932053;29;20059;-79
2022/01/01 00:21:03;;;;;;;488.88;333.63;;;;;;;7.09;67.58;95418.16;4916912;29;20035;-80
2022/01/01 00:23:28;;;;;;;485.67;329.00;;;;;;;6.97;67.85;95411.94;4933422;29;20054;-79
2022/01/01 00:25:54;;;;;;;468.08;316.63;;;;;;;6.94;67.83;95409.75;4900938;29;20504;-79
2022/01/01 00:28:19;;;;;;;477.42;314.88;;;;;;;6.85;67.93;95411.75;4950966;29;20039;-79
2022/01/01 00:30:45;;;;;;;476.33;323.88;;;;;;;6.82;67.93;95406.94;4948881;29;20040;-78
2022/01/01 00:33:10;;;;;;;492.63;338.23;;;;;;;6.76;68.63;95412.88;4901714;29;20039;-79
2022/01/01 00:35:36;;;;;;;502.30;353.35;;;;;;;6.69;68.20;95413.84;4932508;29;20472;-80
2022/01/01 00:38:01;;;;;;;510.15;353.13;;;;;;;6.73;68.50;95415.06;4915822;29;20055;-79
2022/01/01 00:40:27;;;;;;;441.20;290.65;;;;;;;6.67;68.34;95414.06;4927709;29;20059;-79
2022/01/01 00:42:55;;;;;;;494.48;342.27;;;;;;;6.67;68.35;95423.56;4947829;29;20035;-78
2022/01/01 00:45:21;;;;;;;467.30;312.85;;;;;;;6.60;68.30;95414.00;4945814;29;20484;-80
2022/01/01 00:47:47;;;;;;;489.35;329.40;;;;;;;6.51;68.05;95406.63;4913635;29;20059;-79
2022/01/01 00:50:12;;;;;;;456.90;302.85;;;;;;;6.49;68.69;95404.22;4901356;29;20048;-79
2022/01/01 00:52:38;;;;;;;451.58;306.40;;;;;;;6.49;68.89;95396.47;4899832;29;20062;-79
2022/01/01 00:55:04;;;;;;;428.65;280.52;;;;;;;6.44;68.29;95401.41;4930759;29;20508;-79
2022/01/01 00:57:29;;;;;;;403.50;263.23;;;;;;;6.39;69.40;95397.81;4931812;29;20422;-80
2022/01/01 00:59:55;;;;;;;435.98;280.15;;;;;;;6.41;69.29;95391.47;4932587;29;20031;-79
2022/01/01 01:02:20;;;;;;;439.50;285.42;;;;;;;6.30;68.78;95386.84;4898645;29;20042;-80
2022/01/01 01:04:46;;;;;;;400.92;250.20;;;;;;;6.35;69.31;95384.50;4929747;29;20054;-79
2022/01/01 01:07:12;;;;;;;449.80;297.15;;;;;;;6.36;68.70;95387.88;4949124;29;20035;-79
2022/01/01 01:09:38;;;;;;;476.55;317.92;;;;;;;6.25;69.49;95384.81;4899188;29;20118;-79
2022/01/01 01:12:03;;;;;;;462.63;308.63;;;;;;;6.28;68.94;95376.69;4929625;29;20119;-80
2022/01/01 01:14:39;;;;;;;465.13;308.70;;;;;;;6.24;69.38;95369.53;4928419;29;20043;-79
2022/01/01 01:17:04;;;;;;;466.40;316.23;;;;;;;6.22;69.32;95359.38;4934403;29;20052;-79
2022/01/01 01:19:30;;;;;;;469.73;317.42;;;;;;;6.22;68.46;95368.91;4915992;29;20066;-79
2022/01/01 01:21:55;;;;;;;482.92;331.08;;;;;;;6.18;68.57;95385.75;4898933;29;20054;-79
2022/01/01 01:24:23;;;;;;;420.00;268.60;;;;;;;6.17;69.47;95379.00;4949526;29;20538;-79
2022/01/01 01:26:50;;;;;;;456.17;304.77;;;;;;;6.20;68.40;95388.97;4916275;29;20105;-79
2022/01/01 01:29:19;;;;;;;459.38;318.25;;;;;;;6.10;68.22;95399.63;4916551;29;20043;-79
2022/01/01 01:31:46;;;;;;;426.13;278.85;;;;;;;6.10;68.57;95399.63;4917651;29;20039;-79
2022/01/01 01:34:11;;;;;;;452.52;305.63;;;;;;;6.01;68.01;95395.59;4914817;29;20069;-79
2022/01/01 01:36:38;;;;;;;406.45;265.35;;;;;;;6.01;68.92;95406.72;4899573;29;20496;-79
2022/01/01 01:39:04;;;;;;;420.60;259.05;;;;;;;6.01;69.15;95401.56;4901940;29;20070;-80
2022/01/01 01:41:31;;;;;;;335.67;202.52;;;;;;;5.95;69.91;95396.34;4934288;29;20111;-79
2022/01/01 01:44:23;;;;;;;101.28;60.58;;;;;;;6.07;72.87;95394.06;4932362;29;20039;-79
2022/01/01 01:46:48;;;;;;;113.43;68.17;;;;;;;6.10;72.90;95391.09;4949462;29;20043;-80
2022/01/01 01:49:14;;;;;;;159.80;87.50;;;;;;;6.17;71.93;95390.13;4916644;29;20044;-79
2022/01/01 01:51:39;;;;;;;178.68;98.25;;;;;;;6.21;72.31;95385.41;4929974;29;20508;-80
2022/01/01 01:54:05;;;;;;;218.13;116.50;;;;;;;6.24;72.45;95385.81;4930425;29;20039;-79
2022/01/01 01:56:30;;;;;;;272.83;151.10;;;;;;;6.25;71.91;95389.19;4932376;29;20031;-79
2022/01/01 01:58:56;;;;;;;252.32;140.50;;;;;;;6.31;71.78;95391.81;4915145;29;20039;-79
2022/01/01 02:01:23;;;;;;;271.85;156.40;;;;;;;6.29;71.41;95382.66;4929181;29;20043;-79
2022/01/01 02:03:49;;;;;;;270.30;150.95;;;;;;;6.33;70.62;95378.69;4901054;29;20038;-80
2022/01/01 02:06:15;;;;;;;230.15;130.82;;;;;;;6.37;70.49;95374.75;4913774;29;20154;-78
2022/01/01 02:08:41;;;;;;;222.73;127.93;;;;;;;6.39;71.52;95367.63;4913621;29;20455;-78
2022/01/01 02:11:06;;;;;;;220.05;121.18;;;;;;;6.43;71.67;95368.03;4915246;29;20071;-78
2022/01/01 02:13:37;;;;;;;194.98;113.63;;;;;;;6.44;70.57;95377.38;4928666;29;20042;-79
2022/01/01 02:16:26;;;;;;;226.00;127.90;;;;;;;6.44;70.22;95373.00;4913615;29;20071;-79
2022/01/01 02:18:53;;;;;;;223.23;132.55;;;;;;;6.39;70.76;95375.38;4931896;29;20138;-78
2022/01/01 02:21:19;;;;;;;271.67;149.63;;;;;;;6.32;69.84;95370.16;4902442;23;20100;-79
2022/01/01 02:23:46;;;;;;;268.75;157.93;;;;;;;6.24;70.08;95372.09;4937539;29;20123;-79
2022/01/01 02:26:18;;;;;;;296.35;168.73;;;;;;;6.24;69.83;95370.31;4920954;29;20075;-79
2022/01/01 02:28:48;;;;;;;277.98;157.75;;;;;;;6.21;68.88;95370.72;4905223;29;20044;-79
2022/01/01 02:31:17;;;;;;;326.52;189.95;;;;;;;6.19;69.18;95377.84;4919899;29;20542;-78
2022/01/01 02:33:43;;;;;;;308.00;184.15;;;;;;;6.14;68.54;95374.22;4885919;29;20432;-78
2022/01/01 02:36:08;;;;;;;311.73;188.82;;;;;;;6.09;68.63;95372.22;4934634;29;20560;-78
2022/01/01 02:38:35;;;;;;;255.05;151.48;;;;;;;6.05;69.83;95365.84;4934699;29;20036;-78
2022/01/01 02:41:00;;;;;;;239.15;137.02;;;;;;;6.05;70.76;95357.31;4935167;29;20027;-79
2022/01/01 02:43:44;;;;;;;303.55;182.50;;;;;;;5.97;68.79;95353.06;4934970;29;20519;-78
2022/01/01 02:46:10;;;;;;;293.45;177.02;;;;;;;5.95;69.49;95348.09;4934472;29;20043;-77
2022/01/01 02:48:35;;;;;;;267.95;156.48;;;;;;;6.04;69.07;95353.13;4936794;29;20511;-77
2022/01/01 02:51:30;;;;;;;299.67;176.98;;;;;;;5.99;69.57;95357.06;4937088;29;20043;-78
2022/01/01 02:53:56;;;;;;;274.98;158.25;;;;;;;5.96;69.26;95352.28;4950588;23;20048;-79
2022/01/01 02:56:23;;;;;;;278.45;155.18;;;;;;;5.89;69.24;95348.84;4899998;29;20053;-79
2022/01/01 02:58:58;;;;;;;261.35;155.55;;;;;;;5.91;67.95;95346.09;4903860;29;20041;-78
2022/01/01 03:01:23;;;;;;;267.77;155.20;;;;;;;5.83;67.80;95347.00;4904217;29;20041;-79
2022/01/01 03:03:52;;;;;;;264.58;160.35;;;;;;;5.88;68.63;95339.50;4911585;29;20040;-79
2022/01/01 03:06:20;;;;;;;274.77;159.00;;;;;;;5.78;69.21;95333.09;4898542;29;20112;-79
2022/01/01 03:08:54;;;;;;;264.45;155.77;;;;;;;5.79;70.52;95330.31;4989092;23;20102;-79
2022/01/01 03:11:19;;;;;;;260.08;152.32;;;;;;;5.84;70.69;95327.94;4935914;29;20046;-79
2022/01/01 03:13:48;;;;;;;258.92;146.30;;;;;;;5.78;71.42;95315.81;4931866;23;20044;-79
2022/01/01 03:16:14;;;;;;;250.65;148.25;;;;;;;5.87;71.61;95322.44;4978119;23;20508;-80
2022/01/01 03:18:43;;;;;;;268.30;158.55;;;;;;;5.90;70.94;95327.25;4920510;29;20051;-79
2022/01/01 03:21:11;;;;;;;275.23;163.88;;;;;;;5.92;69.41;95333.00;4941072;29;20040;-79
2022/01/01 03:23:39;;;;;;;289.98;172.20;;;;;;;5.78;69.45;95313.22;4967791;23;20035;-78
2022/01/01 03:26:04;;;;;;;303.40;171.55;;;;;;;5.88;68.79;95331.78;4963456;23;20525;-78
2022/01/01 03:28:30;;;;;;;294.70;163.25;;;;;;;5.94;69.29;95325.88;5040480;23;20054;-79
2022/01/01 03:31:02;;;;;;;246.45;148.43;;;;;;;6.03;70.09;95333.47;4941396;29;20035;-79
2022/01/01 03:33:27;;;;;;;313.70;176.23;;;;;;;6.04;68.51;95335.06;4947400;29;20071;-78
2022/01/01 03:35:53;;;;;;;255.07;141.90;;;;;;;6.09;69.70;95332.69;4931494;29;20047;-78
2022/01/01 03:38:18;;;;;;;186.55;101.22;;;;;;;6.19;70.50;95335.75;4951616;29;20027;-79
2022/01/01 03:40:49;;;;;;;377.75;209.88;;;;;;;6.11;68.28;95328.94;4959304;29;20028;-77
2022/01/01 03:43:14;;;;;;;357.75;206.80;;;;;;;6.07;67.12;95329.50;4966844;29;20059;-77
2022/01/01 03:45:39;;;;;;;322.25;176.77;;;;;;;6.07;68.35;95338.06;4970868;29;20050;-79
2022/01/01 03:48:05;;;;;;;311.98;185.25;;;;;;;6.06;67.62;95340.81;4952085;29;20039;-79
2022/01/01 03:50:34;;;;;;;317.02;179.55;;;;;;;6.09;68.21;95330.91;4950914;29;20035;-81
2022/01/01 03:53:00;;;;;;;126.50;72.43;;;;;;;6.15;70.77;95339.66;4930692;29;20040;-81
2022/01/01 03:55:25;;;;;;;89.70;49.60;;;;;;;6.19;70.87;95333.16;5018106;23;20939;-78
2022/01/01 03:57:51;;;;;;;161.63;92.10;;;;;;;6.24;70.52;95317.88;4934653;29;20067;-79
2022/01/01 04:00:17;;;;;;;225.02;130.13;;;;;;;6.27;69.38;95312.31;4932197;29;20035;-79
2022/01/01 04:02:48;;;;;;;187.98;102.85;;;;;;;6.31;69.45;95318.69;4932508;29;20032;-78
2022/01/01 04:05:13;;;;;;;256.50;148.70;;;;;;;6.26;69.06;95306.38;4985627;23;20044;-79
2022/01/01 04:07:39;;;;;;;260.92;144.88;;;;;;;6.32;68.61;95304.78;4942186;29;20476;-78
2022/01/01 04:10:05;;;;;;;218.15;122.18;;;;;;;6.37;68.79;95297.28;4947370;29;20543;-78
2022/01/01 04:12:30;;;;;;;243.45;137.55;;;;;;;6.41;67.95;95295.88;4947463;29;20043;-78
2022/01/01 04:15:01;;;;;;;289.55;158.02;;;;;;;6.39;68.51;95279.78;4930403;29;20030;-78
2022/01/01 04:17:27;;;;;;;266.58;146.82;;;;;;;6.33;69.22;95280.53;4948538;29;20050;-79
2022/01/01 04:19:55;;;;;;;250.55;141.95;;;;;;;6.39;68.86;95295.28;4949007;23;20043;-79
2022/01/01 04:22:20;;;;;;;235.57;134.98;;;;;;;6.40;68.89;95293.50;4943744;29;20055;-78
2022/01/01 04:24:46;;;;;;;259.45;146.52;;;;;;;6.42;68.36;95289.72;4947967;29;20059;-78
2022/01/01 04:27:20;;;;;;;210.52;115.53;;;;;;;6.40;69.23;95273.63;4946572;23;20055;-78
2022/01/01 04:29:46;;;;;;;202.88;117.63;;;;;;;6.41;69.16;95287.34;4949274;29;20606;-79
2022/01/01 04:32:14;;;;;;;210.07;118.57;;;;;;;6.46;68.52;95275.44;4947623;28;20031;-78
2022/01/01 04:34:45;;;;;;;229.73;128.30;;;;;;;6.46;68.84;95280.59;4954692;29;20035;-78
2022/01/01 04:37:13;;;;;;;200.38;111.88;;;;;;;6.56;68.19;95267.31;4941543;29;20138;-78
2022/01/01 04:39:59;;;;;;;206.10;118.65;;;;;;;6.48;68.63;95268.28;4946416;29;20035;-78
2022/01/01 04:42:28;;;;;;;191.63;108.28;;;;;;;6.49;69.23;95275.03;4933480;29;20496;-78
2022/01/01 04:44:54;;;;;;;241.43;134.00;;;;;;;6.55;68.34;95273.47;4949395;29;20028;-78
2022/01/01 04:47:19;;;;;;;257.40;144.40;;;;;;;6.55;68.08;95279.44;4915966;29;20034;-78
2022/01/01 04:49:45;;;;;;;288.27;160.57;;;;;;;6.39;67.87;95274.63;4915909;29;20043;-77
2022/01/01 04:52:10;;;;;;;251.27;140.88;;;;;;;6.43;67.23;95265.50;4913706;29;20139;-78
2022/01/01 04:54:39;;;;;;;247.88;144.10;;;;;;;6.42;67.43;95269.06;4947222;29;20517;-78
2022/01/01 04:57:05;;;;;;;254.63;143.85;;;;;;;6.34;68.78;95266.63;4950419;29;20039;-79
2022/01/01 04:59:30;;;;;;;232.38;130.38;;;;;;;6.39;69.10;95259.13;4950219;29;20036;-78
2022/01/01 05:01:56;;;;;;;209.45;120.22;;;;;;;6.42;69.16;95263.91;4930840;29;20047;-77
2022/01/01 05:04:21;;;;;;;210.57;119.45;;;;;;;6.49;69.21;95264.69;4933957;29;20663;-78
2022/01/01 05:06:49;;;;;;;198.77;110.30;;;;;;;6.52;68.97;95274.66;4930396;29;20060;-79
2022/01/01 05:09:16;;;;;;;210.68;121.05;;;;;;;6.58;67.97;95289.38;4930004;29;20043;-79
2022/01/01 05:11:42;;;;;;;180.68;100.45;;;;;;;6.59;68.66;95295.34;4949873;29;20036;-78
2022/01/01 05:14:09;;;;;;;188.75;115.18;;;;;;;6.66;68.34;95295.34;4948646;29;20412;-79
2022/01/01 05:16:35;;;;;;;188.60;110.97;;;;;;;6.65;68.23;95298.94;4930618;29;20066;-78
2022/01/01 05:19:03;;;;;;;136.48;75.28;;;;;;;6.72;69.02;95292.00;4948474;29;20035;-79
2022/01/01 05:21:32;;;;;;;127.03;75.90;;;;;;;6.77;68.90;95297.38;4929817;29;20036;-79
2022/01/01 05:24:01;;;;;;;157.23;86.40;;;;;;;6.75;68.65;95307.13;4949380;29;20059;-79
2022/01/01 05:26:26;;;;;;;155.48;87.88;;;;;;;6.82;68.39;95305.31;4915973;29;20035;-79
2022/01/01 05:28:51;;;;;;;148.48;85.32;;;;;;;6.81;68.23;95303.72;4930788;29;20172;-78
2022/01/01 05:31:19;;;;;;;158.48;88.68;;;;;;;6.79;68.11;95310.91;4949549;29;20046;-79
2022/01/01 05:33:45;;;;;;;170.07;97.57;;;;;;;6.84;68.06;95326.63;4919457;23;20039;-79
2022/01/01 05:36:10;;;;;;;197.90;112.95;;;;;;;6.87;68.19;95326.22;4912681;29;20052;-79
2022/01/01 05:38:36;;;;;;;213.80;119.18;;;;;;;6.87;68.16;95334.78;4913956;29;20147;-79
2022/01/01 05:41:01;;;;;;;187.80;103.88;;;;;;;6.84;68.46;95347.31;4932202;29;20039;-79
2022/01/01 05:43:27;;;;;;;180.65;102.90;;;;;;;6.86;68.28;95337.56;4928943;29;20488;-79
2022/01/01 05:45:52;;;;;;;172.50;98.57;;;;;;;6.81;68.52;95342.50;4915236;29;20069;-78
2022/01/01 05:48:43;;;;;;;175.07;100.35;;;;;;;6.83;68.23;95343.09;4929507;29;20475;-78
2022/01/01 05:51:08;;;;;;;205.60;114.72;;;;;;;6.84;67.86;95344.72;4930142;29;20031;-79
2022/01/01 05:53:34;;;;;;;201.15;112.53;;;;;;;6.72;67.28;95326.41;5144794;23;20047;-79
2022/01/01 05:55:59;;;;;;;160.23;90.50;;;;;;;6.75;68.04;95317.44;4927617;29;20127;-79
2022/01/01 05:58:25;;;;;;;144.30;80.57;;;;;;;6.71;68.48;95318.84;4925005;29;20036;-79
2022/01/01 06:00:50;;;;;;;155.90;91.68;;;;;;;6.59;68.96;95310.84;4917601;29;20033;-78
2022/01/01 06:03:17;;;;;;;156.00;88.35;;;;;;;6.59;69.84;95318.59;4917378;29;20095;-79
2022/01/01 06:05:43;;;;;;;168.63;93.15;;;;;;;6.61;69.75;95312.25;4916974;29;20115;-78
2022/01/01 06:08:08;;;;;;;175.10;96.22;;;;;;;6.61;69.28;95320.00;4915320;29;20599;-79
2022/01/01 06:10:34;;;;;;;161.40;91.68;;;;;;;6.59;69.80;95321.97;4916433;29;20124;-78
2022/01/01 06:12:59;;;;;;;145.50;81.97;;;;;;;6.56;69.84;95314.63;4917017;29;20040;-79
2022/01/01 06:15:25;;;;;;;136.48;79.68;;;;;;;6.68;70.07;95324.41;4917675;29;20052;-79
2022/01/01 06:17:50;;;;;;;113.70;68.32;;;;;;;6.73;70.36;95322.03;4915859;29;20540;-79
2022/01/01 06:20:16;;;;;;;121.55;71.28;;;;;;;6.81;69.74;95329.59;4916195;29;20122;-79
2022/01/01 06:22:42;;;;;;;156.00;86.40;;;;;;;6.91;69.22;95320.47;4916735;29;20448;-79
2022/01/01 06:25:08;;;;;;;111.05;66.55;;;;;;;6.96;68.88;95322.47;4893603;29;20032;-78
2022/01/01 06:27:33;;;;;;;129.10;77.38;;;;;;;7.02;68.48;95310.56;4901528;29;20079;-79
2022/01/01 06:29:59;;;;;;;185.82;99.95;;;;;;;7.04;68.25;95314.53;4918151;29;20492;-79
2022/01/01 06:32:24;;;;;;;201.82;120.32;;;;;;;6.99;68.05;95311.72;4917766;29;20048;-79
2022/01/01 06:34:52;;;;;;;217.40;127.75;;;;;;;7.02;67.76;95316.53;4917912;29;20032;-78
2022/01/01 06:37:17;;;;;;;213.95;131.10;;;;;;;7.02;67.37;95332.03;4916741;29;20036;-79
2022/01/01 06:39:43;;;;;;;217.13;129.68;;;;;;;7.08;66.59;95327.84;4936645;23;20062;-78
2022/01/01 06:42:08;;;;;;;107.97;63.20;;;;;;;7.18;68.50;95334.25;4939540;29;20048;-79
2022/01/01 06:44:37;;;;;;;41.35;25.38;;;;;;;7.30;68.77;95338.81;4921749;29;20035;-79
2022/01/01 06:47:03;;;;;;;48.97;30.42;;;;;;;7.37;68.98;95344.81;4900982;29;20028;-80
2022/01/01 06:49:28;;;;;;;45.80;27.95;;;;;;;7.45;68.53;95342.00;4904922;29;20468;-78
2022/01/01 06:51:54;;;;;;;81.88;45.30;;;;;;;7.52;67.55;95348.00;4939088;29;20031;-78
2022/01/01 06:54:19;;;;;;;55.53;35.38;;;;;;;7.47;67.82;95343.38;4951330;23;20123;-79
2022/01/01 06:56:45;;;;;;;44.25;25.05;;;;;;;7.54;67.67;95356.34;4919170;29;20043;-79
2022/01/01 06:59:10;;;;;;;62.22;33.22;;;;;;;7.56;67.48;95348.38;4947399;29;20042;-79
2022/01/01 07:01:36;;;;;;;66.07;37.60;;;;;;;7.63;67.83;95339.59;4945231;29;20047;-79
2022/01/01 07:04:03;;;;;;;56.47;31.48;;;;;;;7.71;67.64;95341.22;4947132;29;20103;-79
2022/01/01 07:06:30;;;;;;;56.15;30.17;;;;;;;7.84;67.97;95341.19;4949204;29;20055;-79
2022/01/01 07:08:58;;;;;;;46.28;26.13;;;;;;;8.05;66.94;95347.94;4916368;29;20035;-78
2022/01/01 07:11:23;;;;;;;37.65;20.75;;;;;;;8.16;66.77;95349.09;4931296;29;20101;-78
2022/01/01 07:13:49;;;;;;;36.08;21.77;;;;;;;8.22;66.24;95351.66;4949078;29;20997;-79
2022/01/01 07:16:14;;;;;;;35.17;21.48;;;;;;;8.19;66.06;95359.84;4931187;29;20098;-78
2022/01/01 07:18:40;;;;;;;20.38;12.73;;;;;;;8.08;67.52;95348.31;4963263;29;20023;-77
2022/01/01 07:21:05;;;;;;;23.63;16.02;;;;;;;8.03;67.32;95357.69;4963548;29;20089;-78
2022/01/01 07:23:30;;;;;;;29.38;16.13;;;;;;;7.99;68.04;95362.50;4961959;29;20011;-78
2022/01/01 07:25:56;;;;;;;37.40;19.05;;;;;;;7.95;68.53;95357.91;4943378;29;20499;-78
2022/01/01 07:28:21;;;;;;;27.85;13.73;;;;;;;8.04;69.04;95349.72;4946051;29;20099;-78
2022/01/01 07:30:47;;;;;;;20.15;13.82;;;;;;;8.20;68.49;95352.88;4929062;29;20027;-78
2022/01/01 07:33:13;;;;;;;21.90;14.30;;;;;;;8.38;68.18;95358.22;4913315;29;20427;-78
2022/01/01 07:35:39;;;;;;;23.52;15.00;;;;;;;8.62;67.57;95359.34;4913308;29;20400;-78
2022/01/01 07:38:04;;;;;;;25.50;15.52;;;;;;;8.87;67.84;95360.22;4912530;29;20036;-78
2022/01/01 07:40:32;;;;;;;27.13;18.08;;;;;;;9.18;66.92;95369.84;4950239;29;20035;-79
2022/01/01 07:42:57;;;;;;;23.90;14.70;;;;;;;9.48;65.63;95375.22;4934317;29;20518;-79
2022/01/01 07:45:25;;;;;;;23.52;16.35;;;;;;;9.79;65.38;95376.19;4916739;29;20039;-79
2022/01/01 07:47:50;;;;;;;30.42;19.17;;;;;;;10.11;64.68;95375.09;4974426;23;20071;-79
2022/01/01 07:50:16;;;;;;;26.55;16.33;;;;;;;10.45;63.53;95378.19;4948181;29;20055;-79
2022/01/01 07:53:09;;;;;;;32.78;19.52;;;;;;;10.84;62.83;95371.72;4947252;29;20040;-79
2022/01/01 07:55:34;;;;;;;28.95;17.88;;;;;;;11.22;60.95;95363.59;4928328;29;20031;-79
2022/01/01 07:57:59;;;;;;;28.80;18.63;;;;;;;11.53;60.81;95354.75;4947200;29;20419;-79
2022/01/01 08:00:28;;;;;;;30.80;19.80;;;;;;;11.84;59.61;95364.09;4969402;23;20115;-78
2022/01/01 08:02:53;;;;;;;28.92;19.25;;;;;;;12.06;59.30;95355.75;4956100;23;20044;-78
2022/01/01 08:05:19;;;;;;;35.20;19.92;;;;;;;12.27;58.66;95353.34;4938687;29;20087;-78
2022/01/01 08:07:45;;;;;;;33.55;19.92;;;;;;;12.56;57.83;95359.41;4939989;29;20047;-79
2022/01/01 08:10:13;;;;;;;32.08;16.95;;;;;;;12.84;56.45;95356.03;4922456;29;20083;-78
2022/01/01 08:12:40;;;;;;;28.15;14.90;;;;;;;13.06;55.98;95358.03;4953923;23;20035;-79
2022/01/01 08:15:06;;;;;;;23.85;13.80;;;;;;;13.16;55.81;95355.56;4940687;29;20074;-79
2022/01/01 08:17:32;;;;;;;22.73;13.85;;;;;;;13.17;55.69;95357.94;4925299;29;20094;-79
2022/01/01 08:19:58;;;;;;;13.80;8.05;;;;;;;13.13;55.33;95359.44;4948813;29;20054;-79
2022/01/01 08:25:00;;;;;;;10.80;6.78;;;;;;;12.95;55.66;95364.84;5020079;23;20619;-79
2022/01/01 08:27:26;;;;;;;14.63;8.75;;;;;;;12.90;55.60;95356.94;4932955;29;20039;-79
2022/01/01 08:29:51;;;;;;;14.15;7.85;;;;;;;12.82;55.70;95359.91;4930805;29;20047;-79
2022/01/01 08:32:17;;;;;;;12.35;8.88;;;;;;;12.82;56.22;95357.28;4948824;29;20483;-79
2022/01/01 08:34:42;;;;;;;13.20;9.45;;;;;;;12.86;55.45;95358.44;4948058;29;20028;-79
2022/01/01 08:37:08;;;;;;;15.00;8.65;;;;;;;12.91;55.49;95366.34;4950364;29;20476;-79
2022/01/01 08:39:33;;;;;;;10.55;6.97;;;;;;;12.95;55.67;95357.03;4930200;29;20038;-80
2022/01/01 08:41:59;;;;;;;13.25;7.03;;;;;;;13.02;55.49;95360.31;4947795;29;20102;-79
2022/01/01 08:44:42;;;;;;;13.15;8.50;;;;;;;13.08;55.07;95358.56;4951283;29;20050;-80
2022/01/01 08:47:07;;;;;;;11.85;6.72;;;;;;;13.16;54.71;95372.03;4919744;29;20435;-80
2022/01/01 08:49:33;;;;;;;10.75;6.28;;;;;;;13.09;54.64;95355.72;4953544;29;20035;-80
2022/01/01 08:51:59;;;;;;;8.38;6.45;;;;;;;13.19;54.97;95371.63;4946890;29;20046;-80
2022/01/01 08:54:24;;;;;;;12.85;7.38;;;;;;;13.33;54.25;95377.31;4912273;29;20118;-80
2022/01/01 08:56:52;;;;;;;6.47;5.35;;;;;;;13.46;53.87;95355.34;4929544;29;20035;-80
2022/01/01 08:59:18;;;;;;;11.27;7.25;;;;;;;13.39;53.58;95365.16;4947439;29;20094;-79
2022/01/01 09:01:43;;;;;;;6.68;4.68;;;;;;;13.31;53.72;95378.59;4914600;29;20039;-80
2022/01/01 09:04:09;;;;;;;3.83;3.47;;;;;;;13.19;54.33;95379.44;4929831;29;20042;-80
2022/01/01 09:06:43;;;;;;;3.40;2.92;;;;;;;13.07;53.96;95370.03;4946605;29;20031;-77
2022/01/01 09:09:10;;;;;;;5.60;4.43;;;;;;;13.03;54.70;95385.38;4932274;29;20506;-79
2022/01/01 09:11:36;;;;;;;10.07;5.35;;;;;;;13.09;54.58;95387.06;4929643;29;20110;-79
2022/01/01 09:14:02;;;;;;;8.55;5.55;;;;;;;13.26;54.10;95386.34;4947251;29;20031;-80
2022/01/01 09:16:29;;;;;;;5.85;4.65;;;;;;;13.42;54.15;95380.34;4930012;29;20494;-80
2022/01/01 09:18:55;;;;;;;8.05;5.70;;;;;;;13.48;54.07;95382.81;4931977;29;20593;-80
2022/01/01 09:21:21;;;;;;;10.40;4.97;;;;;;;13.54;54.04;95388.16;4914950;29;20035;-80
2022/01/01 09:23:46;;;;;;;6.88;5.65;;;;;;;13.59;53.84;95386.41;4915717;29;20637;-80
2022/01/01 09:26:12;;;;;;;13.90;5.95;;;;;;;13.65;53.77;95393.28;4933098;29;20038;-80
2022/01/01 09:28:39;;;;;;;9.93;5.57;;;;;;;13.79;53.11;95391.94;4915869;29;20078;-80
2022/01/01 09:31:05;;;;;;;9.73;6.72;;;;;;;13.87;53.46;95390.00;4930120;29;20043;-79
2022/01/01 09:33:32;;;;;;;7.93;4.88;;;;;;;13.96;52.65;95378.88;4931240;29;20054;-80
2022/01/01 09:36:46;;;;;;;14.02;7.43;;;;;;;13.98;52.77;95394.31;4929411;29;20533;-82
2022/01/01 09:39:11;;;;;;;6.90;5.18;;;;;;;13.89;52.90;95396.56;4947818;29;20111;-80
2022/01/01 09:41:42;;;;;;;12.85;6.82;;;;;;;13.94;52.92;95407.09;4946232;29;20034;-81
2022/01/01 09:44:16;;;;;;;11.57;6.22;;;;;;;13.97;53.19;95408.44;4933479;29;20040;-82
2022/01/01 09:46:44;;;;;;;8.93;4.90;;;;;;;13.94;53.12;95414.13;4917065;29;20036;-81
2022/01/01 09:49:09;;;;;;;11.27;5.15;;;;;;;13.75;53.46;95410.97;4955157;29;20043;-81
2022/01/01 09:51:57;;;;;;;15.05;7.93;;;;;;;13.74;53.52;95407.56;4948302;29;20446;-79
2022/01/01 09:54:22;;;;;;;6.72;4.72;;;;;;;13.53;53.69;95403.03;4933831;29;20566;-81
2022/01/01 09:56:47;;;;;;;9.60;6.63;;;;;;;13.49;53.98;95397.47;4952637;29;20027;-81
2022/01/01 09:59:14;;;;;;;9.80;6.38;;;;;;;13.47;53.85;95401.34;4929548;29;20043;-80
2022/01/01 10:01:39;;;;;;;15.43;7.82;;;;;;;13.44;54.04;95399.19;4943677;29;20036;-81
2022/01/01 10:04:12;;;;;;;14.38;6.50;;;;;;;13.36;54.19;95412.66;4927148;23;20110;-81
2022/01/01 10:06:37;;;;;;;17.92;9.20;;;;;;;13.36;54.57;95410.03;4927924;29;20034;-81
2022/01/01 10:09:03;;;;;;;18.45;11.20;;;;;;;13.39;54.23;95407.75;4928601;29;20035;-78
2022/01/01 10:11:30;;;;;;;14.10;8.15;;;;;;;13.38;55.27;95410.59;4895350;29;20032;-79
2022/01/01 10:13:55;;;;;;;18.75;9.20;;;;;;;13.42;55.31;95422.16;4913317;29;20042;-80
2022/01/01 10:16:21;;;;;;;20.33;9.80;;;;;;;13.44;54.94;95412.25;4916162;29;20031;-80
2022/01/01 10:18:48;;;;;;;21.50;10.70;;;;;;;13.50;54.65;95416.53;4915071;29;20152;-80
2022/01/01 10:21:26;;;;;;;34.13;16.58;;;;;;;13.64;54.18;95409.19;4913536;29;20035;-80
2022/01/01 10:23:57;;;;;;;28.50;13.52;;;;;;;13.71;53.42;95413.25;4913265;29;20043;-81
2022/01/01 10:29:22;;;;;;;63.88;30.05;;;;;;;13.59;52.88;95396.84;4916998;29;20473;-80
2022/01/01 10:32:10;;;;;;;51.63;25.98;;;;;;;13.57;53.03;95403.34;4911559;29;20051;-79
2022/01/01 10:34:48;;;;;;;18.70;11.50;;;;;;;13.54;52.31;95409.03;4914785;29;20044;-81
2022/01/01 10:37:14;;;;;;;19.63;11.93;;;;;;;13.45;52.42;95400.78;4912468;23;20047;-79
2022/01/01 10:39:52;;;;;;;22.58;10.52;;;;;;;13.29;52.61;95386.66;4930698;29;20035;-81
2022/01/01 10:42:18;;;;;;;12.95;8.70;;;;;;;13.15;53.32;95382.72;4943658;29;20049;-80
2022/01/01 10:44:47;;;;;;;15.05;9.38;;;;;;;13.13;53.08;95377.72;4930523;29;20040;-79
2022/01/01 10:47:16;;;;;;;10.40;7.78;;;;;;;13.13;52.72;95387.38;4937910;29;20052;-79
2022/01/01 10:52:24;;;;;;;7.28;5.20;;;;;;;13.29;52.16;95371.00;4917323;29;20032;-81
2022/01/01 10:54:56;;;;;;;8.90;5.13;;;;;;;13.33;51.98;95386.97;4931434;29;20039;-81
2022/01/01 10:57:29;;;;;;;6.13;5.18;;;;;;;13.39;52.32;95386.06;4913292;29;20115;-81
2022/01/01 11:00:17;;;;;;;6.57;4.85;;;;;;;13.50;51.82;95388.63;4915540;29;20036;-80
2022/01/01 11:02:59;;;;;;;5.10;4.60;;;;;;;13.58;51.95;95384.03;4929922;29;20028;-81
2022/01/01 11:05:31;;;;;;;4.53;4.13;;;;;;;13.52;51.84;95355.22;4929916;29;20040;-81
2022/01/01 11:07:57;;;;;;;5.38;4.43;;;;;;;13.38;51.31;95374.81;4930149;29;20063;-80
2022/01/01 11:10:23;;;;;;;7.85;4.10;;;;;;;13.35;51.24;95369.28;4900954;29;20036;-81
2022/01/01 11:12:49;;;;;;;8.63;3.97;;;;;;;13.41;50.63;95379.56;4900048;29;20504;-82
2022/01/01 11:15:14;;;;;;;12.70;5.57;;;;;;;13.50;49.94;95382.56;4908767;29;20497;-82
2022/01/01 11:17:41;;;;;;;16.98;5.32;;;;;;;13.50;49.41;95379.97;4909225;29;20107;-81
2022/01/01 11:20:09;;;;;;;11.13;5.43;;;;;;;13.45;50.10;95380.69;4896220;29;20059;-80
2022/01/01 11:22:35;;;;;;;7.88;5.60;;;;;;;13.41;50.24;95379.56;4927402;29;20036;-80
2022/01/01 11:25:06;;;;;;;6.38;5.13;;;;;;;13.28;50.60;95379.84;4898262;29;20098;-79
2022/01/01 11:27:31;;;;;;;7.03;5.10;;;;;;;13.18;50.39;95359.59;4922961;29;20036;-78